London, United Kingdom

7:25 PM GMT on December 02, 2016 (GMT +0000)
Heathrow | | Change Station

Elev 79 ft 51.48 °N, 0.46 °W | Updated 5 minutes ago

Light Rain
Light Rain
45 °F
Feels Like 45 °F
N
2
Wind Variable Wind from Variable

Today
High -- | Low -- °F
--% Chance of Precip.
Yesterday
High -- | Low -- °F
Precip. -- in
Pressure 30.30 in
Visibility 5.6 miles
Clouds Few 2400 ft
Mostly Cloudy 3500 ft
Dew Point 41 °F
Humidity 87%
Rainfall 0.00 in
Snow Depth Not available.
7:46 AM 3:55 PM
Waxing Crescent, 10% visible
METAR EGLL 021920Z AUTO VRB02KT 9000 -RA FEW024 BKN035 07/05 Q1026 BECMG BKN012
Pressure 30.30 in
Visibility 5.6 miles
Clouds Few 2400 ft
Mostly Cloudy 3500 ft
Dew Point 41 °F
Humidity 87%
Rainfall 0.00 in
Snow Depth Not available.
7:46 AM 3:55 PM
Waxing Crescent, 10% visible
METAR EGLL 021920Z AUTO VRB02KT 9000 -RA FEW024 BKN035 07/05 Q1026 BECMG BKN012

10-Day Weather Forecast

×

Almanac

Astronomy

Dec. 02, 2016 Rise Set
Actual Time
Civil Twilight
Nautical Twilight
Astronomical Twilight
Moon
Length of Visible Light
Length of Day
Tomorrow will be .
, % of the Moon is Illuminated

Today's Extremes

Country Highs Country Lows

Community

WunderPhotos

Upload Photos

1,955,343 photos uploaded!

WunderBlog® & News

Nearby

Air Quality

  Air Quality AQ Index Pollutant
Not available.

Snow Depth

Station Depth Elevation

Earthquake Activity

City Distance Mag. Time & Date
Minimum magnitude displayed is 2.5.

Coastal Water Temperatures

Place Temperature

Stations

Nearby Weather Stations

Station Location Temp. Windchill Dew Point Humidity Wind Precip. Elev Updated Type